EGXU

RAF Linton-On-Ouse Airport

Linton-On-Ouse, United Kingdom
METAR EGXU 161750Z AUTO 28004KT 9999 // FEW030/// 04/01 Q0998
Observed Flight Rules
Jan-16 @ 17:50 UTC (35 minutes ago) Visual Flight Rules
Wind Visibility Clouds
280° at 4 knots 10,000+ meters
  • Few at 3,000' AGL
Temperatures Readings
Current 4°C / 39°F
Dewpoint 1°C / 34°F
Humidity 81%
Altimeter 29.47" Hg
Pressure 997.92 hPa
Elevation 16
METAR EGXU 161750Z AUTO 28004KT 9999 // FEW030/// 04/01 Q0998
Observed Flight Rules
Jan-16 @ 17:50 UTC
(35 minutes ago)
VFR
Wind Visibility
280° at 4 knots 10,000+ meters
Clouds
  • Few at 3,000' AGL
Temperature Dewpoint
4°C / 39°F 1°C / 34°F
Humidity Altimeter Pressure
81% 29.47" Hg 997.92 hPa